createdAt,value
2023-09-24T00:00:42.728Z,100597.28
2023-09-24T00:02:45.754Z,100596.78
2023-09-24T00:04:48.908Z,100591.94
2023-09-24T00:06:51.570Z,100592.25
2023-09-24T00:08:54.495Z,100604.06
2023-09-24T00:10:57.419Z,100594.09
2023-09-24T00:13:00.401Z,100592.50
2023-09-24T00:15:04.086Z,100609.50
2023-09-24T00:17:09.888Z,100610.66
2023-09-24T00:19:12.569Z,100612.63
2023-09-24T00:21:15.846Z,100605.44
2023-09-24T00:23:18.729Z,100599.06
2023-09-24T00:25:22.720Z,100605.81
2023-09-24T00:27:25.460Z,100603.34
2023-09-24T00:29:28.197Z,100605.66
2023-09-24T00:31:32.220Z,100606.47
2023-09-24T00:33:35.167Z,100606.47
2023-09-24T00:35:37.874Z,100609.94
2023-09-24T00:37:40.644Z,100605.88
2023-09-24T00:39:43.262Z,100600.19
2023-09-24T00:41:47.312Z,100607.59
2023-09-24T00:43:50.126Z,100605.16
2023-09-24T00:45:53.318Z,100610.25
2023-09-24T00:47:57.917Z,100608.97
2023-09-24T00:50:00.987Z,100600.47
2023-09-24T00:52:04.047Z,100604.41
2023-09-24T00:54:08.209Z,100603.13
2023-09-24T00:56:12.318Z,100604.63
2023-09-24T00:58:15.359Z,100609.72
2023-09-24T01:00:19.514Z,100604.84
2023-09-24T01:02:22.488Z,100609.94
2023-09-24T01:04:25.341Z,100611.44
2023-09-24T01:06:28.281Z,100608.66
2023-09-24T01:08:32.839Z,100608.50
2023-09-24T01:10:35.582Z,100608.03
2023-09-24T01:12:40.793Z,100603.16
2023-09-24T01:14:43.513Z,100609.03
2023-09-24T01:16:46.410Z,100608.13
2023-09-24T01:18:49.122Z,100595.69
2023-09-24T01:20:52.300Z,100606.81
2023-09-24T01:22:54.994Z,100605.19
2023-09-24T01:24:58.192Z,100604.03
2023-09-24T01:27:00.997Z,100599.97
2023-09-24T01:29:04.142Z,100611.91
2023-09-24T01:31:08.005Z,100611.91
2023-09-24T01:33:10.785Z,100610.28
2023-09-24T01:35:14.029Z,100609.78
2023-09-24T01:37:17.219Z,100612.94
2023-09-24T01:39:20.604Z,100608.50
2023-09-24T01:41:23.960Z,100610.81
2023-09-24T01:43:27.123Z,100615.06
2023-09-24T01:45:30.165Z,100612.66
2023-09-24T01:47:33.780Z,100606.16
2023-09-24T01:49:36.474Z,100605.66
2023-09-24T01:51:39.519Z,100606.47
2023-09-24T01:53:43.703Z,100606.34
2023-09-24T01:55:46.499Z,100608.28
2023-09-24T01:57:49.401Z,100602.75
2023-09-24T01:59:52.080Z,100604.22
2023-09-24T02:01:54.906Z,100611.25
2023-09-24T02:04:00.906Z,100608.81
2023-09-24T02:06:07.067Z,100614.22
2023-09-24T02:08:13.589Z,100608.19
2023-09-24T02:10:19.705Z,100612.44
2023-09-24T02:12:23.370Z,100617.88
2023-09-24T02:14:26.170Z,100611.03
2023-09-24T02:16:29.207Z,100607.78
2023-09-24T02:18:34.247Z,100609.25
2023-09-24T02:20:37.772Z,100615.25
2023-09-24T02:22:40.851Z,100614.47
2023-09-24T02:24:43.690Z,100616.44
2023-09-24T02:26:46.607Z,100612.50
2023-09-24T02:28:49.374Z,100610.56
2023-09-24T02:30:54.864Z,100609.06
2023-09-24T02:32:59.384Z,100611.16
2023-09-24T02:35:02.596Z,100611.31
2023-09-24T02:37:07.805Z,100611.75
2023-09-24T02:39:11.140Z,100618.16
2023-09-24T02:41:13.701Z,100619.91
2023-09-24T02:43:16.754Z,100615.66
2023-09-24T02:45:20.183Z,100606.69
2023-09-24T02:47:22.999Z,100615.97
2023-09-24T02:49:26.197Z,100618.88
2023-09-24T02:51:29.792Z,100610.22
2023-09-24T02:53:33.030Z,100613.94
2023-09-24T02:55:37.555Z,100614.41
2023-09-24T02:57:42.424Z,100620.09
2023-09-24T02:59:45.149Z,100629.69
2023-09-24T03:01:53.528Z,100617.91
2023-09-24T03:03:56.501Z,100621.16
2023-09-24T03:05:59.265Z,100621.31
2023-09-24T03:08:02.458Z,100627.00
2023-09-24T03:10:08.881Z,100624.69
2023-09-24T03:12:13.155Z,100619.13
2023-09-24T03:14:15.846Z,100621.25
2023-09-24T03:16:18.544Z,100622.53
2023-09-24T03:18:21.338Z,100627.72
2023-09-24T03:20:25.222Z,100623.00
2023-09-24T03:22:28.470Z,100631.78
2023-09-24T03:24:31.113Z,100625.22
2023-09-24T03:26:33.808Z,100627.66
2023-09-24T03:28:37.197Z,100633.22
2023-09-24T03:30:39.915Z,100632.75
2023-09-24T03:32:43.221Z,100625.09
2023-09-24T03:34:46.016Z,100627.53
2023-09-24T03:36:48.657Z,100621.63
2023-09-24T03:38:51.471Z,100626.84
2023-09-24T03:40:54.329Z,100627.66
2023-09-24T03:42:57.412Z,100629.91
2023-09-24T03:45:01.656Z,100633.16
2023-09-24T03:47:06.971Z,100638.50
2023-09-24T03:49:09.651Z,100640.09
2023-09-24T03:51:12.443Z,100644.16
2023-09-24T03:53:16.952Z,100646.94
2023-09-24T03:55:22.614Z,100647.09
2023-09-24T03:57:28.775Z,100645.25
2023-09-24T03:59:31.458Z,100648.03
2023-09-24T04:01:34.480Z,100650.13
2023-09-24T04:03:38.717Z,100648.63
2023-09-24T04:05:41.535Z,100637.19
2023-09-24T04:07:44.639Z,100642.03
2023-09-24T04:09:49.109Z,100650.53
2023-09-24T04:11:51.830Z,100650.16
2023-09-24T04:13:54.518Z,100652.59
2023-09-24T04:15:57.288Z,100655.88
2023-09-24T04:18:02.057Z,100657.94
2023-09-24T04:20:08.532Z,100664.50
2023-09-24T04:22:11.193Z,100669.34
2023-09-24T04:24:15.197Z,100661.97
2023-09-24T04:26:24.599Z,100659.66
2023-09-24T04:28:27.840Z,100663.00
2023-09-24T04:30:30.895Z,100667.88
2023-09-24T04:32:33.691Z,100660.00
2023-09-24T04:34:36.680Z,100676.47
2023-09-24T04:36:43.020Z,100674.16
2023-09-24T04:38:46.116Z,100670.72
2023-09-24T04:40:48.828Z,100667.22
2023-09-24T04:42:52.609Z,100660.16
2023-09-24T04:44:55.802Z,100662.59
2023-09-24T04:46:58.563Z,100668.28
2023-09-24T04:49:06.044Z,100670.38
2023-09-24T04:51:09.034Z,100678.84
2023-09-24T04:53:11.676Z,100679.78
2023-09-24T04:55:15.600Z,100680.72
2023-09-24T04:57:18.546Z,100674.78
2023-09-24T04:59:21.264Z,100678.38
2023-09-24T05:01:24.130Z,100682.91
2023-09-24T05:03:26.931Z,100682.22
2023-09-24T05:05:29.855Z,100685.81
2023-09-24T05:07:32.620Z,100686.38
2023-09-24T05:09:35.231Z,100686.16
2023-09-24T05:11:38.069Z,100670.28
2023-09-24T05:13:41.688Z,100672.59
2023-09-24T05:15:55.633Z,100681.53
2023-09-24T05:17:58.462Z,100681.75
2023-09-24T05:20:01.246Z,100674.34
2023-09-24T05:22:03.964Z,100676.53
2023-09-24T05:24:06.880Z,100672.72
2023-09-24T05:26:14.603Z,100671.66
2023-09-24T05:28:17.422Z,100675.47
2023-09-24T05:30:20.244Z,100682.44
2023-09-24T05:32:23.088Z,100683.78
2023-09-24T05:34:25.886Z,100685.19
2023-09-24T05:36:29.486Z,100688.09
2023-09-24T05:38:32.252Z,100681.44
2023-09-24T05:40:39.755Z,100681.53
2023-09-24T05:42:45.772Z,100682.00
2023-09-24T05:44:48.492Z,100684.53
2023-09-24T05:46:51.188Z,100694.63
2023-09-24T05:48:56.653Z,100687.97
2023-09-24T05:51:03.993Z,100680.81
2023-09-24T05:53:08.213Z,100683.34
2023-09-24T05:55:10.828Z,100682.16
2023-09-24T05:57:13.905Z,100686.34
2023-09-24T05:59:16.753Z,100695.25
2023-09-24T06:01:19.878Z,100687.81
2023-09-24T06:03:22.766Z,100693.13
2023-09-24T06:05:25.724Z,100689.28
2023-09-24T06:07:29.688Z,100685.41
2023-09-24T06:09:34.195Z,100683.88
2023-09-24T06:11:39.795Z,100687.59
2023-09-24T06:13:42.988Z,100685.59
2023-09-24T06:15:45.968Z,100687.44
2023-09-24T06:17:51.066Z,100690.88
2023-09-24T06:19:57.015Z,100685.81
2023-09-24T06:21:59.851Z,100699.16
2023-09-24T06:24:02.661Z,100690.50
2023-09-24T06:26:05.761Z,100690.59
2023-09-24T06:28:10.840Z,100687.56
2023-09-24T06:30:14.214Z,100690.06
2023-09-24T06:32:17.139Z,100682.22
2023-09-24T06:34:21.411Z,100684.41
2023-09-24T06:36:24.181Z,100684.41
2023-09-24T06:38:26.923Z,100684.94
2023-09-24T06:40:30.428Z,100677.91
2023-09-24T06:42:33.278Z,100685.19
2023-09-24T06:44:36.010Z,100680.97
2023-09-24T06:46:38.869Z,100684.63
2023-09-24T06:48:41.730Z,100685.19
2023-09-24T06:50:44.625Z,100683.69
2023-09-24T06:52:49.542Z,100678.66
2023-09-24T06:54:52.442Z,100684.41
2023-09-24T06:56:56.898Z,100683.38
2023-09-24T06:59:16.192Z,100679.50
2023-09-24T07:01:24.492Z,100670.75
2023-09-24T07:03:27.637Z,100679.00
2023-09-24T07:05:31.312Z,100675.56
2023-09-24T07:07:34.030Z,100672.47
2023-09-24T07:09:37.018Z,100678.59
2023-09-24T07:11:40.008Z,100682.25
2023-09-24T07:13:42.943Z,100672.41
2023-09-24T07:15:45.610Z,100668.84
2023-09-24T07:17:48.407Z,100674.22
2023-09-24T07:19:51.886Z,100670.75
2023-09-24T07:21:54.641Z,100671.25
2023-09-24T07:23:59.780Z,100677.38
2023-09-24T07:26:02.703Z,100670.63
2023-09-24T07:28:05.616Z,100668.00
2023-09-24T07:30:10.815Z,100670.47
2023-09-24T07:32:15.740Z,100664.56
2023-09-24T07:34:18.635Z,100677.13
2023-09-24T07:36:32.441Z,100666.78
2023-09-24T07:38:40.760Z,100670.88
2023-09-24T07:40:44.589Z,100670.94
2023-09-24T07:42:50.769Z,100669.00
2023-09-24T07:44:55.005Z,100681.53
2023-09-24T07:46:58.032Z,100666.00
2023-09-24T07:49:04.877Z,100668.50
2023-09-24T07:51:07.787Z,100671.41
2023-09-24T07:53:11.359Z,100668.72
2023-09-24T07:55:14.336Z,100663.16
2023-09-24T07:57:17.422Z,100672.00
2023-09-24T07:59:20.762Z,100667.28
2023-09-24T08:01:24.498Z,100669.75
2023-09-24T08:03:27.876Z,100666.13
2023-09-24T08:05:31.527Z,100673.91
2023-09-24T08:07:37.536Z,100673.97
2023-09-24T08:09:41.872Z,100675.22
2023-09-24T08:11:45.013Z,100675.66
2023-09-24T08:13:50.226Z,100662.44
2023-09-24T08:15:57.958Z,100669.31
2023-09-24T08:18:00.964Z,100667.44
2023-09-24T08:20:03.900Z,100672.72
2023-09-24T08:22:08.456Z,100670.03
2023-09-24T08:24:11.810Z,100665.25
2023-09-24T08:26:14.966Z,100674.47
2023-09-24T08:28:18.435Z,100667.69
2023-09-24T08:30:21.715Z,100654.44
2023-09-24T08:32:25.368Z,100668.16
2023-09-24T08:34:28.614Z,100661.81
2023-09-24T08:36:32.218Z,100658.25
2023-09-24T08:38:35.177Z,100663.56
2023-09-24T08:40:41.307Z,100661.19
2023-09-24T08:42:51.820Z,100653.63
2023-09-24T08:45:16.397Z,100654.91
2023-09-24T08:47:20.759Z,100662.59
2023-09-24T08:49:24.305Z,100653.31
2023-09-24T08:51:33.626Z,100667.06
2023-09-24T08:53:37.742Z,100651.44
2023-09-24T08:55:47.857Z,100648.66
2023-09-24T08:57:51.856Z,100639.44
2023-09-24T08:59:54.631Z,100639.50
2023-09-24T09:01:57.439Z,100639.94
2023-09-24T09:04:00.652Z,100648.00
2023-09-24T09:06:05.442Z,100647.19
2023-09-24T09:08:09.950Z,100633.56
2023-09-24T09:10:13.068Z,100639.25
2023-09-24T09:12:20.117Z,100634.44
2023-09-24T09:14:38.852Z,100632.47
2023-09-24T09:17:00.105Z,100638.09
2023-09-24T09:19:04.061Z,100631.66
2023-09-24T09:21:06.873Z,100630.09
2023-09-24T09:23:14.809Z,100626.56
2023-09-24T09:25:18.346Z,100633.06
2023-09-24T09:27:21.882Z,100623.88
2023-09-24T09:29:26.643Z,100613.91
2023-09-24T09:31:30.221Z,100615.59
2023-09-24T09:33:35.688Z,100610.78
2023-09-24T09:35:38.635Z,100615.63
2023-09-24T09:37:43.614Z,100611.19
2023-09-24T09:39:47.336Z,100607.22
2023-09-24T09:41:52.579Z,100618.88
2023-09-24T09:43:55.758Z,100611.63
2023-09-24T09:45:59.277Z,100603.56
2023-09-24T09:48:05.939Z,100606.00
2023-09-24T09:50:12.092Z,100608.84
2023-09-24T09:52:21.381Z,100605.63
2023-09-24T09:54:25.671Z,100594.41
2023-09-24T09:56:28.718Z,100597.22
2023-09-24T09:58:35.155Z,100597.22
2023-09-24T10:00:40.367Z,100595.63
2023-09-24T10:02:49.087Z,100587.66
2023-09-24T10:04:53.160Z,100599.69
2023-09-24T10:06:56.407Z,100592.06
2023-09-24T10:08:59.166Z,100582.41
2023-09-24T10:11:02.511Z,100592.88
2023-09-24T10:13:06.089Z,100587.66
2023-09-24T10:15:28.389Z,100590.06
2023-09-24T10:17:31.613Z,100582.84
2023-09-24T10:20:00.373Z,100579.28
2023-09-24T10:22:29.566Z,100573.28
2023-09-24T10:24:38.585Z,100575.75
2023-09-24T10:27:06.335Z,100577.38
2023-09-24T10:29:09.529Z,100576.16
2023-09-24T10:31:13.777Z,100566.53
2023-09-24T10:33:16.722Z,100564.94
2023-09-24T10:35:20.775Z,100562.53
2023-09-24T10:37:39.049Z,100556.09
2023-09-24T10:40:06.381Z,100550.91
2023-09-24T10:42:10.925Z,100554.94
2023-09-24T10:44:28.902Z,100550.53
2023-09-24T10:46:32.392Z,100548.91
2023-09-24T10:48:51.913Z,100542.91
2023-09-24T10:50:56.276Z,100539.28
2023-09-24T10:53:01.233Z,100550.56
2023-09-24T10:55:04.203Z,100538.13
2023-09-24T10:57:07.525Z,100546.16
2023-09-24T10:59:10.356Z,100546.56
2023-09-24T11:01:13.381Z,100544.97
2023-09-24T11:03:17.573Z,100544.16
2023-09-24T11:05:20.760Z,100534.91
2023-09-24T11:07:27.550Z,100536.88
2023-09-24T11:09:30.589Z,100533.25
2023-09-24T11:11:34.433Z,100522.78
2023-09-24T11:13:37.771Z,100523.97
2023-09-24T11:15:41.563Z,100517.53
2023-09-24T11:17:49.394Z,100519.53
2023-09-24T11:19:52.561Z,100530.44
2023-09-24T11:21:55.770Z,100524.41
2023-09-24T11:23:58.912Z,100510.66
2023-09-24T11:26:01.708Z,100516.72
2023-09-24T11:28:06.317Z,100513.09
2023-09-24T11:30:10.130Z,100509.03
2023-09-24T11:32:26.341Z,100508.16
2023-09-24T11:34:30.632Z,100505.34
2023-09-24T11:36:33.434Z,100490.44
2023-09-24T11:38:42.025Z,100493.19
2023-09-24T11:40:45.099Z,100509.69
2023-09-24T11:43:05.483Z,100498.81
2023-09-24T11:45:08.653Z,100501.19
2023-09-24T11:47:11.607Z,100492.66
2023-09-24T11:49:14.677Z,100493.38
2023-09-24T11:51:17.678Z,100485.63
2023-09-24T11:53:25.705Z,100483.94
2023-09-24T11:55:29.534Z,100489.53
2023-09-24T11:57:32.347Z,100490.69
2023-09-24T11:59:35.150Z,100484.22
2023-09-24T12:01:38.575Z,100483.38
2023-09-24T12:03:44.200Z,100480.50
2023-09-24T12:05:48.241Z,100475.56
2023-09-24T12:07:52.030Z,100483.84
2023-09-24T12:09:54.954Z,100485.78
2023-09-24T12:11:59.981Z,100478.06
2023-09-24T12:14:03.663Z,100476.72
2023-09-24T12:16:06.582Z,100474.69
2023-09-24T12:18:10.369Z,100472.59
2023-09-24T12:20:15.545Z,100462.06
2023-09-24T12:22:18.641Z,100463.94
2023-09-24T12:24:21.537Z,100472.69
2023-09-24T12:26:24.383Z,100461.06
2023-09-24T12:28:29.653Z,100465.84
2023-09-24T12:30:33.313Z,100456.97
2023-09-24T12:32:36.542Z,100458.31
2023-09-24T12:34:39.393Z,100457.72
2023-09-24T12:36:42.392Z,100454.25
2023-09-24T12:38:45.225Z,100456.13
2023-09-24T12:40:48.765Z,100454.72
2023-09-24T12:42:52.205Z,100449.22
2023-09-24T12:44:55.663Z,100457.31
2023-09-24T12:46:58.564Z,100449.22
2023-09-24T12:49:03.857Z,100445.25
2023-09-24T12:51:07.036Z,100434.13
2023-09-24T12:53:09.935Z,100443.84
2023-09-24T12:55:17.201Z,100443.09
2023-09-24T12:57:20.318Z,100439.84
2023-09-24T12:59:23.265Z,100431.84
2023-09-24T13:01:26.116Z,100432.09
2023-09-24T13:03:30.224Z,100428.22
2023-09-24T13:05:34.981Z,100439.56
2023-09-24T13:07:38.010Z,100428.88
2023-09-24T13:09:41.824Z,100440.06
2023-09-24T13:11:47.580Z,100422.47
2023-09-24T13:13:51.563Z,100433.16
2023-09-24T13:15:54.377Z,100429.06
2023-09-24T13:17:57.349Z,100419.91
2023-09-24T13:20:00.432Z,100428.47
2023-09-24T13:22:03.335Z,100418.63
2023-09-24T13:24:06.913Z,100418.06
2023-09-24T13:26:09.685Z,100421.63
2023-09-24T13:28:12.636Z,100407.88
2023-09-24T13:30:15.432Z,100425.38
2023-09-24T13:32:20.921Z,100411.63
2023-09-24T13:34:24.372Z,100417.91
2023-09-24T13:36:27.691Z,100415.84
2023-09-24T13:38:31.307Z,100412.56
2023-09-24T13:40:39.083Z,100412.38
2023-09-24T13:42:42.492Z,100412.75
2023-09-24T13:44:45.248Z,100415.53
2023-09-24T13:46:48.176Z,100411.66
2023-09-24T13:48:51.124Z,100410.44
2023-09-24T13:50:54.215Z,100408.63
2023-09-24T13:52:57.718Z,100402.19
2023-09-24T13:55:00.490Z,100403.00
2023-09-24T13:57:04.628Z,100405.56
2023-09-24T13:59:08.932Z,100399.97
2023-09-24T14:01:12.777Z,100395.50
2023-09-24T14:03:16.028Z,100391.19
2023-09-24T14:05:19.262Z,100398.56
2023-09-24T14:07:22.013Z,100392.50
2023-09-24T14:09:43.252Z,100392.72
2023-09-24T14:12:05.153Z,100391.81
2023-09-24T14:14:08.444Z,100386.09
2023-09-24T14:16:16.804Z,100385.13
2023-09-24T14:18:20.372Z,100381.28
2023-09-24T14:20:23.729Z,100377.41
2023-09-24T14:22:26.485Z,100378.72
2023-09-24T14:24:30.039Z,100376.53
2023-09-24T14:26:33.333Z,100376.47
2023-09-24T14:28:36.315Z,100378.66
2023-09-24T14:30:40.008Z,100376.78
2023-09-24T14:32:42.952Z,100384.59
2023-09-24T14:34:47.077Z,100387.09
2023-09-24T14:36:51.376Z,100376.31
2023-09-24T14:38:54.277Z,100381.59
2023-09-24T14:40:57.631Z,100385.28
2023-09-24T14:43:00.638Z,100383.66
2023-09-24T14:45:05.562Z,100381.28
2023-09-24T14:47:08.744Z,100376.06
2023-09-24T14:49:13.434Z,100385.72
2023-09-24T14:51:19.906Z,100378.03
2023-09-24T14:53:26.600Z,100380.81
2023-09-24T14:55:29.335Z,100381.63
2023-09-24T14:57:31.973Z,100382.00
2023-09-24T14:59:34.876Z,100378.34
2023-09-24T15:01:40.809Z,100371.47
2023-09-24T15:03:44.222Z,100375.03
2023-09-24T15:05:47.487Z,100366.97
2023-09-24T15:07:50.551Z,100374.94
2023-09-24T15:09:53.332Z,100364.81
2023-09-24T15:11:59.764Z,100365.16
2023-09-24T15:14:02.581Z,100369.16
2023-09-24T15:16:06.383Z,100359.41
2023-09-24T15:18:10.437Z,100356.50
2023-09-24T15:20:13.520Z,100362.06
2023-09-24T15:22:16.533Z,100362.00
2023-09-24T15:24:19.654Z,100357.13
2023-09-24T15:26:22.820Z,100354.66
2023-09-24T15:28:25.735Z,100353.81
2023-09-24T15:30:28.573Z,100352.94
2023-09-24T15:32:31.407Z,100348.88
2023-09-24T15:34:34.266Z,100349.59
2023-09-24T15:36:37.286Z,100347.13
2023-09-24T15:38:40.690Z,100356.25
2023-09-24T15:40:43.570Z,100359.00
2023-09-24T15:42:46.421Z,100354.53
2023-09-24T15:44:51.612Z,100357.69
2023-09-24T15:46:54.417Z,100364.38
2023-09-24T15:48:57.184Z,100356.31
2023-09-24T15:51:00.225Z,100355.47
2023-09-24T15:53:05.332Z,100362.19
2023-09-24T15:55:09.633Z,100358.91
2023-09-24T15:57:12.727Z,100357.25
2023-09-24T15:59:16.203Z,100350.75
2023-09-24T16:01:19.144Z,100352.34
2023-09-24T16:03:22.240Z,100358.25
2023-09-24T16:05:26.498Z,100350.97
2023-09-24T16:07:29.772Z,100357.72
2023-09-24T16:09:32.675Z,100363.66
2023-09-24T16:11:36.070Z,100355.97
2023-09-24T16:13:41.662Z,100361.47
2023-09-24T16:15:44.488Z,100359.38
2023-09-24T16:17:47.460Z,100361.28
2023-09-24T16:19:50.809Z,100368.84
2023-09-24T16:21:54.330Z,100364.00
2023-09-24T16:23:58.681Z,100362.72
2023-09-24T16:26:11.135Z,100371.03
2023-09-24T16:28:14.269Z,100371.38
2023-09-24T16:30:18.866Z,100373.66
2023-09-24T16:32:22.099Z,100364.28
2023-09-24T16:34:27.059Z,100367.06
2023-09-24T16:36:35.040Z,100363.78
2023-09-24T16:38:37.868Z,100370.47
2023-09-24T16:40:40.640Z,100375.59
2023-09-24T16:42:47.447Z,100373.91
2023-09-24T16:44:50.369Z,100374.97
2023-09-24T16:46:53.486Z,100371.75
2023-09-24T16:48:56.460Z,100370.88
2023-09-24T16:51:04.526Z,100366.75
2023-09-24T16:53:07.870Z,100375.44
2023-09-24T16:55:10.709Z,100364.91
2023-09-24T16:57:15.114Z,100373.28
2023-09-24T16:59:18.403Z,100372.41
2023-09-24T17:01:22.954Z,100374.31
2023-09-24T17:03:26.269Z,100375.84
2023-09-24T17:05:30.518Z,100376.97
2023-09-24T17:07:33.598Z,100374.13
2023-09-24T17:09:36.465Z,100368.84
2023-09-24T17:11:39.865Z,100371.88
2023-09-24T17:13:44.893Z,100373.38
2023-09-24T17:15:48.603Z,100370.03
2023-09-24T17:17:52.330Z,100365.50
2023-09-24T17:19:56.074Z,100361.81
2023-09-24T17:21:59.570Z,100371.28
2023-09-24T17:24:02.659Z,100369.59
2023-09-24T17:26:19.237Z,100369.09
2023-09-24T17:28:23.075Z,100370.19
2023-09-24T17:30:26.152Z,100373.28
2023-09-24T17:32:29.030Z,100371.59
2023-09-24T17:34:33.580Z,100369.09
2023-09-24T17:36:36.859Z,100360.97
2023-09-24T17:38:41.294Z,100365.25
2023-09-24T17:40:46.291Z,100363.09
2023-09-24T17:42:49.008Z,100362.13
2023-09-24T17:44:52.598Z,100363.19
2023-09-24T17:46:55.647Z,100369.75
2023-09-24T17:48:58.527Z,100354.91
2023-09-24T17:51:09.600Z,100355.19
2023-09-24T17:53:12.548Z,100350.25
2023-09-24T17:55:15.314Z,100364.13
2023-09-24T17:57:19.498Z,100359.63
2023-09-24T17:59:23.726Z,100352.78
2023-09-24T18:01:27.834Z,100347.94
2023-09-24T18:03:31.014Z,100351.81
2023-09-24T18:05:33.904Z,100354.50
2023-09-24T18:07:36.803Z,100350.47
2023-09-24T18:09:39.619Z,100351.63
2023-09-24T18:11:42.457Z,100351.19
2023-09-24T18:13:46.513Z,100353.88
2023-09-24T18:15:56.750Z,100352.97
2023-09-24T18:17:59.619Z,100348.13
2023-09-24T18:20:02.529Z,100348.03
2023-09-24T18:22:07.380Z,100349.13
2023-09-24T18:24:10.188Z,100345.78
2023-09-24T18:26:13.229Z,100340.13
2023-09-24T18:28:17.115Z,100346.38
2023-09-24T18:30:19.910Z,100343.19
2023-09-24T18:32:22.949Z,100341.88
2023-09-24T18:34:25.669Z,100326.59
2023-09-24T18:36:28.393Z,100338.88
2023-09-24T18:38:31.418Z,100346.34
2023-09-24T18:40:41.507Z,100337.09
2023-09-24T18:42:45.535Z,100335.72
2023-09-24T18:44:51.439Z,100341.66
2023-09-24T18:46:54.926Z,100335.97
2023-09-24T18:48:57.697Z,100335.19
2023-09-24T18:51:01.602Z,100334.72
2023-09-24T18:53:05.028Z,100321.88
2023-09-24T18:55:07.965Z,100330.13
2023-09-24T18:57:10.641Z,100323.28
2023-09-24T18:59:13.326Z,100328.41
2023-09-24T19:01:16.092Z,100324.34
2023-09-24T19:03:18.872Z,100325.19
2023-09-24T19:05:24.341Z,100331.09
2023-09-24T19:07:27.080Z,100336.66
2023-09-24T19:09:29.797Z,100327.03
2023-09-24T19:11:33.116Z,100327.84
2023-09-24T19:13:35.876Z,100329.81
2023-09-24T19:15:38.643Z,100329.03
2023-09-24T19:17:41.853Z,100334.13
2023-09-24T19:19:44.593Z,100317.44
2023-09-24T19:21:47.263Z,100320.94
2023-09-24T19:23:54.239Z,100324.41
2023-09-24T19:25:56.892Z,100316.78
2023-09-24T19:27:59.644Z,100316.22
2023-09-24T19:30:02.714Z,100324.66
2023-09-24T19:32:08.598Z,100323.72
2023-09-24T19:34:11.553Z,100322.13
2023-09-24T19:36:18.159Z,100328.03
2023-09-24T19:38:21.187Z,100320.41
2023-09-24T19:40:25.338Z,100318.34
2023-09-24T19:42:28.091Z,100322.25
2023-09-24T19:44:31.270Z,100323.78
2023-09-24T19:46:34.249Z,100316.84
2023-09-24T19:48:38.353Z,100316.03
2023-09-24T19:50:41.206Z,100318.34
2023-09-24T19:52:44.010Z,100316.75
2023-09-24T19:54:46.699Z,100314.31
2023-09-24T19:56:49.984Z,100311.44
2023-09-24T19:58:52.625Z,100308.28
2023-09-24T20:00:59.884Z,100313.84
2023-09-24T20:03:02.789Z,100316.19
2023-09-24T20:05:07.096Z,100310.47
2023-09-24T20:07:10.022Z,100311.28
2023-09-24T20:09:12.927Z,100306.09
2023-09-24T20:11:16.036Z,100304.84
2023-09-24T20:13:19.052Z,100314.31
2023-09-24T20:15:21.977Z,100311.78
2023-09-24T20:17:24.746Z,100315.28
2023-09-24T20:19:28.048Z,100317.59
2023-09-24T20:21:30.848Z,100317.94
2023-09-24T20:23:33.677Z,100310.63
2023-09-24T20:25:45.109Z,100305.41
2023-09-24T20:27:48.746Z,100313.31
2023-09-24T20:29:51.460Z,100314.00
2023-09-24T20:31:54.119Z,100316.78
2023-09-24T20:34:01.330Z,100313.19
2023-09-24T20:36:05.468Z,100315.50
2023-09-24T20:38:08.200Z,100304.63
2023-09-24T20:40:11.298Z,100309.72
2023-09-24T20:42:14.071Z,100317.13
2023-09-24T20:44:16.747Z,100317.84
2023-09-24T20:46:20.731Z,100313.00
2023-09-24T20:48:23.720Z,100313.66
2023-09-24T20:50:28.316Z,100309.97
2023-09-24T20:52:31.055Z,100306.75
2023-09-24T20:54:33.825Z,100316.13
2023-09-24T20:56:36.597Z,100305.72
2023-09-24T20:58:39.318Z,100305.56
2023-09-24T21:00:44.647Z,100299.91
2023-09-24T21:02:47.736Z,100307.78
2023-09-24T21:04:50.482Z,100300.59
2023-09-24T21:06:53.214Z,100303.75
2023-09-24T21:08:55.951Z,100297.72
2023-09-24T21:10:58.774Z,100298.06
2023-09-24T21:13:01.842Z,100305.09
2023-09-24T21:15:08.957Z,100300.25
2023-09-24T21:17:11.978Z,100292.84
2023-09-24T21:19:14.917Z,100298.97
2023-09-24T21:21:17.622Z,100292.97
2023-09-24T21:23:20.687Z,100293.28
2023-09-24T21:25:23.327Z,100294.47
2023-09-24T21:27:26.132Z,100294.00
2023-09-24T21:29:28.934Z,100292.84
2023-09-24T21:31:31.590Z,100287.66
2023-09-24T21:33:35.355Z,100284.41
2023-09-24T21:35:38.241Z,100288.31
2023-09-24T21:37:40.872Z,100286.34
2023-09-24T21:39:44.727Z,100281.47
2023-09-24T21:41:47.423Z,100280.53
2023-09-24T21:43:50.138Z,100288.03
2023-09-24T21:45:52.802Z,100281.22
2023-09-24T21:47:55.663Z,100284.69
2023-09-24T21:49:58.486Z,100282.94
2023-09-24T21:52:03.230Z,100280.03
2023-09-24T21:54:06.192Z,100280.75
2023-09-24T21:56:08.965Z,100282.94
2023-09-24T21:58:11.641Z,100288.81
2023-09-24T22:00:20.597Z,100280.81
2023-09-24T22:02:23.663Z,100280.03
2023-09-24T22:04:26.657Z,100283.13
2023-09-24T22:06:30.315Z,100280.72
2023-09-24T22:08:33.510Z,100282.53
2023-09-24T22:10:37.336Z,100285.22
2023-09-24T22:12:41.065Z,100283.09
2023-09-24T22:14:43.830Z,100287.03
2023-09-24T22:16:48.966Z,100273.16
2023-09-24T22:18:51.952Z,100278.72
2023-09-24T22:20:54.788Z,100271.88
2023-09-24T22:22:57.467Z,100278.25
2023-09-24T22:25:00.166Z,100273.38
2023-09-24T22:27:02.987Z,100272.56
2023-09-24T22:29:05.855Z,100268.28
2023-09-24T22:31:10.419Z,100273.38
2023-09-24T22:33:13.132Z,100273.72
2023-09-24T22:35:17.148Z,100274.06
2023-09-24T22:37:19.991Z,100266.75
2023-09-24T22:39:22.740Z,100273.13
2023-09-24T22:41:25.404Z,100273.47
2023-09-24T22:43:28.541Z,100271.81
2023-09-24T22:45:31.451Z,100267.44
2023-09-24T22:47:34.835Z,100268.94
2023-09-24T22:49:38.159Z,100273.69
2023-09-24T22:51:41.144Z,100268.47
2023-09-24T22:53:44.254Z,100266.38
2023-09-24T22:55:47.422Z,100277.34
2023-09-24T22:57:50.358Z,100267.06
2023-09-24T22:59:53.073Z,100269.81
2023-09-24T23:01:55.833Z,100271.78
2023-09-24T23:03:58.595Z,100268.91
2023-09-24T23:06:01.386Z,100264.50
2023-09-24T23:08:05.210Z,100262.53
2023-09-24T23:10:08.718Z,100260.44
2023-09-24T23:12:12.057Z,100263.91
2023-09-24T23:14:14.839Z,100257.09
2023-09-24T23:16:17.491Z,100257.28
2023-09-24T23:18:21.897Z,100256.81
2023-09-24T23:20:26.395Z,100253.91
2023-09-24T23:22:30.415Z,100251.81
2023-09-24T23:24:34.102Z,100251.66
2023-09-24T23:26:36.887Z,100252.34
2023-09-24T23:28:40.058Z,100248.78
2023-09-24T23:30:45.647Z,100243.56
2023-09-24T23:32:48.490Z,100247.97
2023-09-24T23:34:51.204Z,100247.63
2023-09-24T23:36:53.821Z,100243.84